Time;durP1;ratioP1;P1;durP2;ratioP2;P2;SDS_P1;SDS_P2;PMS_P1;PMS_P2;Temp;Humidity;BMP_temperature;BMP_pressure;BME280_temperature;BME280_humidity;BME280_pressure;Samples;Min_cycle;Max_cycle;Signal;HPM_P1;HPM_P2
2021/06/20 00:00:15;;;;;;;1.73;1.50;;;;;27.60;99768.00;;;;2080111;28;20224;-59
2021/06/20 00:01:15;;;;;;;1.40;1.30;;;;;27.60;99750.00;;;;2078990;28;20218;-59
2021/06/20 00:02:16;;;;;;;2.50;1.77;;;;;27.60;99740.00;;;;2079731;28;20505;-58
2021/06/20 00:03:16;;;;;;;1.83;1.73;;;;;27.60;99724.00;;;;2079829;28;20217;-60
2021/06/20 00:04:16;;;;;;;2.03;1.50;;;;;27.60;99708.00;;;;2074179;28;20301;-59
2021/06/20 00:05:21;;;;;;;1.80;1.70;;;;;27.60;99701.00;;;;2072782;28;20488;-59
2021/06/20 00:06:26;;;;;;;1.70;1.43;;;;;27.60;99697.00;;;;2074655;28;20550;-60
2021/06/20 00:07:26;;;;;;;2.63;1.67;;;;;27.60;99686.00;;;;2068038;28;20866;-59
2021/06/20 00:08:26;;;;;;;1.63;1.30;;;;;27.60;99688.00;;;;2071488;28;20510;-59
2021/06/20 00:09:27;;;;;;;1.97;1.77;;;;;27.60;99651.00;;;;2071263;28;20228;-59
2021/06/20 00:10:27;;;;;;;1.90;1.70;;;;;27.60;99674.00;;;;2071673;28;20584;-58
2021/06/20 00:11:28;;;;;;;2.50;1.67;;;;;27.60;99676.00;;;;2070927;28;20576;-60
2021/06/20 00:12:28;;;;;;;2.27;1.70;;;;;27.60;99664.00;;;;2071529;28;20257;-59
2021/06/20 00:13:28;;;;;;;1.77;1.40;;;;;27.60;99661.00;;;;2071632;28;20241;-59
2021/06/20 00:14:29;;;;;;;2.30;1.80;;;;;27.60;99670.00;;;;2071363;28;20329;-59
2021/06/20 00:15:29;;;;;;;2.30;2.10;;;;;27.60;99650.00;;;;2071689;28;20706;-59
2021/06/20 00:16:30;;;;;;;1.60;1.50;;;;;27.60;99656.00;;;;2071048;28;20703;-60
2021/06/20 00:17:30;;;;;;;1.73;1.40;;;;;27.60;99656.00;;;;2070866;28;20220;-59
2021/06/20 00:18:30;;;;;;;2.07;1.70;;;;;27.60;99651.00;;;;2069561;28;20293;-60
2021/06/20 00:19:31;;;;;;;1.53;1.40;;;;;27.60;99648.00;;;;2070691;28;20229;-59
2021/06/20 00:20:35;;;;;;;2.03;1.83;;;;;27.60;99647.00;;;;2071416;28;20199;-59
2021/06/20 00:21:35;;;;;;;1.30;1.20;;;;;27.60;99652.00;;;;2070724;28;20214;-59
2021/06/20 00:22:36;;;;;;;1.83;1.73;;;;;27.60;99641.00;;;;2071467;28;20492;-59
2021/06/20 00:23:36;;;;;;;1.70;1.50;;;;;27.60;99642.00;;;;2071588;28;20299;-59
2021/06/20 00:24:36;;;;;;;2.27;1.93;;;;;27.60;99635.00;;;;2075550;28;20268;-59
2021/06/20 00:25:37;;;;;;;2.67;1.63;;;;;27.60;99642.00;;;;2079736;28;20296;-58
2021/06/20 00:26:37;;;;;;;2.40;1.70;;;;;27.60;99636.00;;;;2079382;28;20259;-59
2021/06/20 00:27:38;;;;;;;2.40;1.80;;;;;27.60;99630.00;;;;2079554;28;20205;-59
2021/06/20 00:28:38;;;;;;;2.10;1.90;;;;;27.60;99624.00;;;;2079675;28;20602;-59
2021/06/20 00:29:38;;;;;;;1.87;1.50;;;;;27.60;99627.00;;;;2079586;28;20579;-60
2021/06/20 00:30:39;;;;;;;1.80;1.67;;;;;27.60;99627.00;;;;2079736;28;20268;-59
2021/06/20 00:31:39;;;;;;;2.10;1.70;;;;;27.60;99634.00;;;;2077420;28;20206;-58
2021/06/20 00:32:40;;;;;;;2.57;1.60;;;;;27.60;99621.00;;;;2079494;28;20212;-59
2021/06/20 00:33:40;;;;;;;1.70;1.47;;;;;27.60;99617.00;;;;2079568;28;20218;-58
2021/06/20 00:34:41;;;;;;;1.90;1.70;;;;;27.60;99609.00;;;;2076077;28;20212;-59
2021/06/20 00:35:41;;;;;;;2.13;1.60;;;;;27.60;99608.00;;;;2073278;28;20237;-59
2021/06/20 00:36:41;;;;;;;1.60;1.50;;;;;27.60;99621.00;;;;2072304;28;20214;-58
2021/06/20 00:37:42;;;;;;;1.80;1.60;;;;;27.60;99618.00;;;;2071420;28;20263;-58
2021/06/20 00:38:42;;;;;;;2.17;1.80;;;;;27.60;99613.00;;;;2071445;28;20298;-58
2021/06/20 00:39:42;;;;;;;2.60;1.70;;;;;27.60;99617.00;;;;2071447;28;20303;-59
2021/06/20 00:40:43;;;;;;;1.83;1.60;;;;;27.60;99621.00;;;;2071249;28;20222;-59
2021/06/20 00:41:43;;;;;;;2.60;1.73;;;;;27.50;99619.00;;;;2070771;28;20258;-60
2021/06/20 00:42:43;;;;;;;3.20;2.10;;;;;27.60;99609.00;;;;2071419;28;20222;-59
2021/06/20 00:43:44;;;;;;;1.60;1.50;;;;;27.50;99613.00;;;;2070653;28;20292;-58
2021/06/20 00:44:45;;;;;;;2.50;1.73;;;;;27.60;99618.00;;;;2070925;28;20233;-59
2021/06/20 00:45:46;;;;;;;1.67;1.57;;;;;27.60;99623.00;;;;2071490;28;20276;-58
2021/06/20 00:46:47;;;;;;;1.73;1.63;;;;;27.50;99619.00;;;;2070762;28;20453;-59
2021/06/20 00:47:47;;;;;;;2.03;1.60;;;;;27.50;99625.00;;;;2071437;28;20460;-58
2021/06/20 00:48:47;;;;;;;1.70;1.57;;;;;27.50;99622.00;;;;2071385;28;20219;-59
2021/06/20 00:49:48;;;;;;;1.60;1.40;;;;;27.50;99616.00;;;;2071444;28;20253;-59
2021/06/20 00:50:48;;;;;;;2.97;1.60;;;;;27.50;99617.00;;;;2071234;28;20228;-58
2021/06/20 00:51:48;;;;;;;2.20;1.80;;;;;27.50;99622.00;;;;2066646;28;20223;-59
2021/06/20 00:52:49;;;;;;;2.47;1.53;;;;;27.50;99616.00;;;;2087209;28;20212;-58
2021/06/20 00:53:49;;;;;;;2.80;1.53;;;;;27.50;99611.00;;;;2081115;28;20226;-59
2021/06/20 00:54:49;;;;;;;2.77;1.70;;;;;27.60;99616.00;;;;2071498;28;20289;-59
2021/06/20 00:55:50;;;;;;;2.70;1.63;;;;;27.50;99604.00;;;;2070992;28;20316;-58
2021/06/20 00:56:51;;;;;;;2.43;1.97;;;;;27.50;99594.00;;;;2071202;28;20590;-59
2021/06/20 00:57:51;;;;;;;1.80;1.70;;;;;27.50;99583.00;;;;2070639;28;20469;-59
2021/06/20 00:59:02;;;;;;;2.03;1.70;;;;;27.60;99568.00;;;;2070648;28;20261;-59
2021/06/20 01:00:07;;;;;;;2.00;1.70;;;;;27.50;99565.00;;;;2071050;28;20206;-60
2021/06/20 01:01:07;;;;;;;3.40;1.57;;;;;27.50;99554.00;;;;2070225;28;20457;-58
2021/06/20 01:02:07;;;;;;;2.07;1.80;;;;;27.50;99561.00;;;;2071342;28;20462;-59
2021/06/20 01:03:08;;;;;;;2.80;2.10;;;;;27.50;99556.00;;;;2071230;28;20211;-59
2021/06/20 01:04:08;;;;;;;1.63;1.50;;;;;27.60;99555.00;;;;2071911;28;20218;-58
2021/06/20 01:05:09;;;;;;;2.50;1.67;;;;;27.50;99555.00;;;;2072247;28;20265;-58
2021/06/20 01:06:09;;;;;;;2.50;2.17;;;;;27.50;99569.00;;;;2071094;28;20206;-59
2021/06/20 01:07:30;;;;;;;3.63;1.60;;;;;27.50;99567.00;;;;2071144;28;20228;-58
2021/06/20 01:08:30;;;;;;;2.00;1.80;;;;;27.50;99568.00;;;;2070592;28;20244;-59
2021/06/20 01:09:30;;;;;;;1.87;1.50;;;;;27.50;99565.00;;;;2070942;28;20970;-58
2021/06/20 01:10:35;;;;;;;2.03;1.80;;;;;27.50;99563.00;;;;2070665;28;20694;-58
2021/06/20 01:11:35;;;;;;;2.30;1.70;;;;;27.50;99561.00;;;;2070722;28;20249;-59
2021/06/20 01:12:36;;;;;;;1.77;1.67;;;;;27.50;99560.00;;;;2070417;28;20924;-58
2021/06/20 01:13:37;;;;;;;2.20;1.70;;;;;27.50;99565.00;;;;2070583;28;20253;-59
2021/06/20 01:14:37;;;;;;;2.80;1.77;;;;;27.50;99551.00;;;;2070440;28;20966;-58
2021/06/20 01:15:38;;;;;;;3.10;2.03;;;;;27.50;99544.00;;;;2070698;28;20695;-58
2021/06/20 01:16:38;;;;;;;1.90;1.77;;;;;27.50;99548.00;;;;2070695;28;20253;-58
2021/06/20 01:17:39;;;;;;;1.87;1.67;;;;;27.50;99550.00;;;;2070435;28;20465;-59
2021/06/20 01:18:40;;;;;;;2.23;1.87;;;;;27.50;99551.00;;;;2070081;28;20248;-59
2021/06/20 01:19:41;;;;;;;1.73;1.63;;;;;27.50;99555.00;;;;2070240;28;20214;-59
2021/06/20 01:20:42;;;;;;;1.70;1.60;;;;;27.50;99553.00;;;;2073803;28;20260;-59
2021/06/20 01:21:43;;;;;;;2.37;1.50;;;;;27.50;99551.00;;;;2073010;28;20816;-59
2021/06/20 01:22:44;;;;;;;2.47;1.90;;;;;27.50;99548.00;;;;2070712;28;20249;-58
2021/06/20 01:23:44;;;;;;;1.80;1.40;;;;;27.50;99545.00;;;;2070192;28;20799;-60
2021/06/20 01:24:48;;;;;;;2.10;1.90;;;;;27.50;99543.00;;;;2071091;28;20461;-60
2021/06/20 01:25:51;;;;;;;2.50;1.90;;;;;27.50;99555.00;;;;2071180;28;20786;-59
2021/06/20 01:26:51;;;;;;;2.23;1.53;;;;;27.50;99555.00;;;;2070617;28;20464;-59
2021/06/20 01:27:56;;;;;;;2.77;2.00;;;;;27.50;99555.00;;;;2071127;28;20981;-59
2021/06/20 01:29:07;;;;;;;2.10;1.90;;;;;27.50;99553.00;;;;2070672;28;20357;-58
2021/06/20 01:30:13;;;;;;;3.20;1.70;;;;;27.50;99556.00;;;;2070364;28;20462;-59
2021/06/20 01:31:13;;;;;;;1.57;1.47;;;;;27.50;99556.00;;;;2069943;28;20469;-59
2021/06/20 01:32:15;;;;;;;3.03;1.57;;;;;27.50;99548.00;;;;2070477;28;20456;-59
2021/06/20 01:33:16;;;;;;;1.90;1.53;;;;;27.50;99544.00;;;;2070571;28;20433;-58
2021/06/20 01:34:16;;;;;;;2.40;1.90;;;;;27.50;99547.00;;;;2070785;28;20497;-58
2021/06/20 01:35:17;;;;;;;2.80;2.00;;;;;27.50;99540.00;;;;2070246;28;20264;-59
2021/06/20 01:36:18;;;;;;;2.20;2.00;;;;;27.50;99543.00;;;;2070566;28;20218;-59
2021/06/20 01:37:18;;;;;;;2.60;1.93;;;;;27.50;99536.00;;;;2070316;28;21035;-58
2021/06/20 01:38:18;;;;;;;3.23;1.80;;;;;27.50;99534.00;;;;2070521;28;20832;-59
2021/06/20 01:39:19;;;;;;;2.73;1.70;;;;;27.50;99530.00;;;;2070549;28;20218;-58
2021/06/20 01:40:19;;;;;;;1.73;1.50;;;;;27.50;99527.00;;;;2070615;28;20354;-58
2021/06/20 01:41:19;;;;;;;1.80;1.70;;;;;27.50;99530.00;;;;2069963;28;20217;-58
2021/06/20 01:42:20;;;;;;;2.33;1.70;;;;;27.50;99527.00;;;;2070488;28;20210;-58
2021/06/20 01:43:20;;;;;;;1.83;1.50;;;;;27.50;99523.00;;;;2071125;28;20210;-58
2021/06/20 01:44:21;;;;;;;2.27;2.07;;;;;27.50;99517.00;;;;2070742;28;20301;-58
2021/06/20 01:45:22;;;;;;;1.97;1.80;;;;;27.50;99511.00;;;;2071040;28;20211;-58
2021/06/20 01:46:23;;;;;;;2.37;1.90;;;;;27.50;99510.00;;;;2070909;28;20515;-59
2021/06/20 01:47:24;;;;;;;2.33;1.80;;;;;27.50;99507.00;;;;2070260;28;22903;-58
2021/06/20 01:48:24;;;;;;;2.70;2.00;;;;;27.50;99508.00;;;;2068871;28;20294;-59
2021/06/20 01:49:24;;;;;;;2.33;2.00;;;;;27.50;99503.00;;;;2074005;28;20806;-59
2021/06/20 01:50:25;;;;;;;2.10;1.90;;;;;27.50;99509.00;;;;2072644;28;20225;-59
2021/06/20 01:51:25;;;;;;;2.33;2.00;;;;;27.50;99508.00;;;;2071427;28;20217;-59
2021/06/20 01:52:26;;;;;;;2.50;2.20;;;;;27.50;99498.00;;;;2070083;28;20226;-58
2021/06/20 01:53:26;;;;;;;3.50;1.70;;;;;27.50;99493.00;;;;2070391;28;20224;-58
2021/06/20 01:54:27;;;;;;;2.30;1.80;;;;;27.50;99492.00;;;;2077899;28;20217;-58
2021/06/20 01:55:27;;;;;;;2.00;1.80;;;;;27.50;99495.00;;;;2077633;28;20213;-59
2021/06/20 01:56:27;;;;;;;2.50;1.60;;;;;27.50;99496.00;;;;2070186;28;20272;-58
2021/06/20 01:57:30;;;;;;;2.50;1.87;;;;;27.50;99491.00;;;;2070257;28;20219;-58
2021/06/20 01:58:30;;;;;;;1.73;1.60;;;;;27.50;99492.00;;;;2070314;28;20671;-58
2021/06/20 01:59:30;;;;;;;2.03;1.80;;;;;27.50;99485.00;;;;2070111;28;20507;-58
2021/06/20 02:00:31;;;;;;;1.70;1.60;;;;;27.50;99481.00;;;;2070437;28;20214;-60
2021/06/20 02:01:31;;;;;;;3.00;1.83;;;;;27.50;99496.00;;;;2068462;28;20221;-59
2021/06/20 02:02:32;;;;;;;2.00;1.70;;;;;27.50;99498.00;;;;2063394;28;20308;-58
2021/06/20 02:03:32;;;;;;;1.80;1.70;;;;;27.50;99491.00;;;;2091007;28;20716;-59
2021/06/20 02:04:32;;;;;;;1.87;1.77;;;;;27.50;99480.00;;;;2082387;28;20221;-59
2021/06/20 02:05:33;;;;;;;2.10;1.87;;;;;27.50;99475.00;;;;2078033;28;20351;-59
2021/06/20 02:06:34;;;;;;;2.60;1.80;;;;;27.50;99481.00;;;;2078347;28;20714;-59
2021/06/20 02:07:37;;;;;;;2.57;2.00;;;;;27.50;99484.00;;;;2077871;28;20218;-58
2021/06/20 02:08:37;;;;;;;2.23;1.70;;;;;27.50;99484.00;;;;2078142;28;20456;-61
2021/06/20 02:09:38;;;;;;;1.80;1.70;;;;;27.50;99495.00;;;;2078466;28;20594;-59
2021/06/20 02:10:41;;;;;;;3.03;2.00;;;;;27.50;99491.00;;;;2076285;28;20583;-59
2021/06/20 02:11:41;;;;;;;2.77;2.10;;;;;27.50;99487.00;;;;2069723;28;20213;-58
2021/06/20 02:12:44;;;;;;;1.87;1.60;;;;;27.50;99499.00;;;;2070436;28;20927;-59
2021/06/20 02:13:44;;;;;;;2.77;1.90;;;;;27.50;99489.00;;;;2069757;28;20342;-58
2021/06/20 02:14:44;;;;;;;3.83;1.90;;;;;27.50;99488.00;;;;2070343;28;20466;-59
2021/06/20 02:15:45;;;;;;;2.03;1.67;;;;;27.50;99488.00;;;;2073725;28;20225;-59
2021/06/20 02:16:45;;;;;;;2.03;1.80;;;;;27.50;99482.00;;;;2073136;28;20229;-58
2021/06/20 02:17:47;;;;;;;2.77;1.63;;;;;27.50;99481.00;;;;2069871;28;20750;-58
2021/06/20 02:18:47;;;;;;;1.43;1.33;;;;;27.50;99495.00;;;;2069577;28;20588;-59
2021/06/20 02:19:49;;;;;;;2.73;1.70;;;;;27.50;99498.00;;;;2070860;28;20544;-59
2021/06/20 02:20:49;;;;;;;1.53;1.33;;;;;27.50;99498.00;;;;2070864;28;20272;-58
2021/06/20 02:21:49;;;;;;;2.10;1.90;;;;;27.50;99494.00;;;;2070274;28;20978;-59
2021/06/20 02:22:53;;;;;;;1.93;1.73;;;;;27.50;99487.00;;;;2071010;28;20627;-60
2021/06/20 02:23:53;;;;;;;2.10;1.90;;;;;27.50;99484.00;;;;2070864;28;20210;-59
2021/06/20 02:24:54;;;;;;;2.60;1.60;;;;;27.50;99483.00;;;;2070812;28;20496;-59
2021/06/20 02:25:54;;;;;;;2.03;1.83;;;;;27.50;99483.00;;;;2069594;28;20695;-60
2021/06/20 02:26:55;;;;;;;1.47;1.37;;;;;27.50;99489.00;;;;2069621;28;20321;-60
2021/06/20 02:27:55;;;;;;;2.07;1.70;;;;;27.50;99487.00;;;;2069800;28;20288;-59
2021/06/20 02:28:55;;;;;;;2.03;1.83;;;;;27.50;99491.00;;;;2070686;28;20214;-58
2021/06/20 02:29:56;;;;;;;2.40;2.00;;;;;27.50;99484.00;;;;2070558;28;20699;-60
2021/06/20 02:30:56;;;;;;;2.50;1.77;;;;;27.50;99486.00;;;;2066964;28;20974;-59
2021/06/20 02:31:57;;;;;;;1.73;1.43;;;;;27.50;99483.00;;;;2070205;28;20222;-59
2021/06/20 02:32:57;;;;;;;2.47;1.83;;;;;27.50;99490.00;;;;2065241;28;20346;-58
2021/06/20 02:33:57;;;;;;;2.00;1.80;;;;;27.50;99488.00;;;;2086279;28;20300;-59
2021/06/20 02:34:58;;;;;;;2.53;1.97;;;;;27.50;99497.00;;;;2082446;28;20739;-59
2021/06/20 02:35:58;;;;;;;2.20;2.00;;;;;27.50;99493.00;;;;2070695;28;20261;-59
2021/06/20 02:36:58;;;;;;;2.53;1.80;;;;;27.50;99497.00;;;;2070288;28;20217;-60
2021/06/20 02:37:59;;;;;;;2.37;1.80;;;;;27.50;99493.00;;;;2070782;28;20663;-58
2021/06/20 02:38:59;;;;;;;2.87;1.93;;;;;27.50;99491.00;;;;2070388;28;20217;-58
2021/06/20 02:40:00;;;;;;;2.37;1.50;;;;;27.50;99496.00;;;;2070820;28;20206;-58
2021/06/20 02:41:00;;;;;;;2.53;1.70;;;;;27.50;99507.00;;;;2071388;28;20265;-58
2021/06/20 02:42:00;;;;;;;1.73;1.60;;;;;27.50;99507.00;;;;2072431;28;20218;-59
2021/06/20 02:43:01;;;;;;;2.07;1.73;;;;;27.50;99513.00;;;;2072205;28;20264;-58
2021/06/20 02:44:01;;;;;;;2.30;1.70;;;;;27.50;99514.00;;;;2077267;28;20205;-58
2021/06/20 02:45:03;;;;;;;1.83;1.63;;;;;27.50;99523.00;;;;2079198;28;20205;-58
2021/06/20 02:46:03;;;;;;;2.47;1.60;;;;;27.50;99521.00;;;;2071677;28;20276;-59
2021/06/20 02:47:05;;;;;;;1.67;1.57;;;;;27.50;99525.00;;;;2072884;28;20548;-58
2021/06/20 02:48:06;;;;;;;2.37;1.70;;;;;27.50;99528.00;;;;2071090;28;20218;-58
2021/06/20 02:49:06;;;;;;;2.03;1.50;;;;;27.30;99534.00;;;;2071728;28;20980;-58
2021/06/20 02:50:07;;;;;;;2.40;1.80;;;;;27.50;99532.00;;;;2071327;28;20317;-59
2021/06/20 02:51:09;;;;;;;2.23;1.50;;;;;27.50;99541.00;;;;2068380;28;20225;-59
2021/06/20 02:52:11;;;;;;;1.60;1.50;;;;;27.50;99550.00;;;;2071486;28;20206;-60
2021/06/20 02:53:11;;;;;;;2.47;2.27;;;;;27.50;99551.00;;;;2071575;28;20588;-60
2021/06/20 02:54:11;;;;;;;2.27;1.40;;;;;27.50;99555.00;;;;2071563;28;21027;-60
2021/06/20 02:55:12;;;;;;;2.00;1.43;;;;;27.50;99557.00;;;;2071826;28;20214;-59
2021/06/20 02:56:12;;;;;;;2.20;1.63;;;;;27.50;99570.00;;;;2071250;28;20218;-58
2021/06/20 02:57:12;;;;;;;1.90;1.70;;;;;27.50;99579.00;;;;2072029;28;20217;-60
2021/06/20 02:58:13;;;;;;;3.40;1.90;;;;;27.50;99575.00;;;;2071957;28;20214;-59
2021/06/20 02:59:13;;;;;;;2.30;1.90;;;;;27.50;99591.00;;;;2078811;28;20286;-59
2021/06/20 03:00:15;;;;;;;2.30;1.57;;;;;27.50;99580.00;;;;2080365;28;20225;-60
2021/06/20 03:01:15;;;;;;;2.50;1.83;;;;;27.50;99592.00;;;;2079415;28;21076;-59
2021/06/20 03:02:16;;;;;;;2.80;1.57;;;;;27.50;99584.00;;;;2080016;28;20456;-59
2021/06/20 03:03:16;;;;;;;2.27;1.77;;;;;27.50;99585.00;;;;2077749;28;20213;-58
2021/06/20 03:04:17;;;;;;;2.80;1.90;;;;;27.50;99582.00;;;;2075712;28;20325;-59
2021/06/20 03:05:17;;;;;;;1.77;1.40;;;;;27.50;99597.00;;;;2075140;28;20210;-59
2021/06/20 03:06:18;;;;;;;1.63;1.50;;;;;27.50;99588.00;;;;2072609;28;20240;-59
2021/06/20 03:07:18;;;;;;;1.90;1.50;;;;;27.50;99589.00;;;;2071935;28;20503;-58
2021/06/20 03:08:19;;;;;;;2.03;1.57;;;;;27.50;99580.00;;;;2070737;28;20210;-59
2021/06/20 03:09:19;;;;;;;1.60;1.47;;;;;27.50;99584.00;;;;2075024;28;20220;-58
2021/06/20 03:10:19;;;;;;;2.60;1.63;;;;;27.50;99585.00;;;;2073931;28;20225;-60
2021/06/20 03:11:20;;;;;;;2.07;1.77;;;;;27.50;99570.00;;;;2074760;28;20214;-59
2021/06/20 03:12:20;;;;;;;2.07;1.43;;;;;27.50;99583.00;;;;2072702;28;20709;-58
2021/06/20 03:13:21;;;;;;;2.37;1.53;;;;;27.50;99581.00;;;;2071767;28;20741;-58
2021/06/20 03:14:21;;;;;;;1.90;1.50;;;;;27.50;99586.00;;;;2075538;28;20217;-58
2021/06/20 03:15:21;;;;;;;2.30;1.60;;;;;27.50;99603.00;;;;2072789;28;20297;-58
2021/06/20 03:16:22;;;;;;;1.30;1.17;;;;;27.50;99600.00;;;;2072050;28;20214;-58
2021/06/20 03:17:22;;;;;;;3.80;1.80;;;;;27.50;99598.00;;;;2078703;28;20210;-59
2021/06/20 03:18:22;;;;;;;1.57;1.37;;;;;27.50;99612.00;;;;2078823;28;20866;-58
2021/06/20 03:19:23;;;;;;;1.70;1.60;;;;;27.50;99615.00;;;;2080038;28;20314;-59
2021/06/20 03:20:23;;;;;;;3.00;1.40;;;;;27.50;99623.00;;;;2080184;28;20641;-58
2021/06/20 03:21:24;;;;;;;1.87;1.70;;;;;27.50;99618.00;;;;2079444;28;20213;-59
2021/06/20 03:22:24;;;;;;;2.17;1.60;;;;;27.50;99632.00;;;;2080231;28;20210;-59
2021/06/20 03:23:25;;;;;;;2.03;1.37;;;;;27.50;99629.00;;;;2080276;28;20217;-59
2021/06/20 03:24:29;;;;;;;3.57;1.80;;;;;27.50;99634.00;;;;2080130;28;20218;-58
2021/06/20 03:25:29;;;;;;;2.00;1.33;;;;;27.50;99633.00;;;;2080088;28;20275;-59
2021/06/20 03:26:29;;;;;;;3.03;1.70;;;;;27.50;99642.00;;;;2079933;28;21039;-59
2021/06/20 03:27:30;;;;;;;2.47;1.80;;;;;27.50;99640.00;;;;2079916;28;20934;-59
2021/06/20 03:28:30;;;;;;;1.60;1.30;;;;;27.50;99642.00;;;;2079875;28;20209;-59
2021/06/20 03:29:30;;;;;;;2.30;1.53;;;;;27.50;99644.00;;;;2080063;28;20585;-59
2021/06/20 03:30:31;;;;;;;1.87;1.33;;;;;27.50;99639.00;;;;2080118;28;20206;-58
2021/06/20 03:31:31;;;;;;;1.67;1.27;;;;;27.50;99639.00;;;;2079255;28;20638;-59
2021/06/20 03:32:32;;;;;;;1.80;1.37;;;;;27.50;99629.00;;;;2080089;28;20206;-59
2021/06/20 03:33:33;;;;;;;2.30;1.83;;;;;27.50;99626.00;;;;2079978;28;20305;-59
2021/06/20 03:34:34;;;;;;;2.90;1.63;;;;;27.50;99635.00;;;;2080137;28;20210;-60
2021/06/20 03:35:34;;;;;;;1.70;1.50;;;;;27.50;99638.00;;;;2080134;28;21072;-59
2021/06/20 03:36:34;;;;;;;1.67;1.57;;;;;27.50;99636.00;;;;2079975;28;20303;-59
2021/06/20 03:37:35;;;;;;;2.50;1.63;;;;;27.50;99632.00;;;;2079864;28;20220;-58
2021/06/20 03:38:35;;;;;;;2.20;1.40;;;;;27.50;99646.00;;;;2079833;28;20249;-59
2021/06/20 03:39:35;;;;;;;1.60;1.50;;;;;27.50;99646.00;;;;2079980;28;20221;-58
2021/06/20 03:40:36;;;;;;;2.53;1.67;;;;;27.50;99637.00;;;;2080003;28;20213;-59
2021/06/20 03:41:38;;;;;;;1.90;1.60;;;;;27.50;99639.00;;;;2079332;28;20228;-59
2021/06/20 03:42:38;;;;;;;1.73;1.50;;;;;27.50;99635.00;;;;2079888;28;20753;-59
2021/06/20 03:43:39;;;;;;;1.63;1.40;;;;;27.50;99638.00;;;;2068553;28;20460;-58
2021/06/20 03:44:41;;;;;;;2.50;1.70;;;;;27.50;99632.00;;;;2076879;28;20718;-58
2021/06/20 03:45:41;;;;;;;2.10;1.43;;;;;27.50;99637.00;;;;2074806;28;20206;-59
2021/06/20 03:46:42;;;;;;;1.33;1.23;;;;;27.50;99639.00;;;;2074114;28;20447;-59
2021/06/20 03:47:42;;;;;;;1.70;1.60;;;;;27.50;99638.00;;;;2071852;28;20630;-60
2021/06/20 03:48:43;;;;;;;2.23;1.70;;;;;27.50;99630.00;;;;2071585;28;20654;-60
2021/06/20 03:49:43;;;;;;;1.93;1.60;;;;;27.50;99627.00;;;;2070221;28;20222;-59
2021/06/20 03:50:43;;;;;;;2.73;1.50;;;;;27.50;99629.00;;;;2072428;28;20235;-58
2021/06/20 03:51:43;;;;;;;2.20;1.33;;;;;27.50;99627.00;;;;2077036;28;20263;-59
2021/06/20 03:52:44;;;;;;;1.70;1.60;;;;;27.50;99634.00;;;;2074803;28;20216;-58
2021/06/20 03:53:45;;;;;;;2.37;1.80;;;;;27.50;99635.00;;;;2074263;28;20301;-58
2021/06/20 03:54:49;;;;;;;2.40;1.80;;;;;27.50;99634.00;;;;2071340;28;20218;-59
2021/06/20 03:55:50;;;;;;;2.30;1.67;;;;;27.50;99635.00;;;;2071339;28;20222;-58
2021/06/20 03:56:51;;;;;;;2.33;1.70;;;;;27.50;99631.00;;;;2071064;28;21296;-59
2021/06/20 03:57:52;;;;;;;2.40;1.57;;;;;27.50;99634.00;;;;2071507;28;20696;-59
2021/06/20 03:58:52;;;;;;;1.90;1.43;;;;;27.50;99634.00;;;;2071045;28;20453;-58
2021/06/20 03:59:52;;;;;;;2.40;1.80;;;;;27.50;99630.00;;;;2071053;28;20206;-60
2021/06/20 04:00:53;;;;;;;1.67;1.57;;;;;27.50;99637.00;;;;2071202;28;20214;-59
2021/06/20 04:01:53;;;;;;;2.07;1.40;;;;;27.50;99637.00;;;;2070493;28;20242;-59
2021/06/20 04:02:54;;;;;;;2.60;1.20;;;;;27.50;99637.00;;;;2070572;28;20217;-59
2021/06/20 04:03:54;;;;;;;1.60;1.50;;;;;27.50;99638.00;;;;2071045;28;20211;-58
2021/06/20 04:04:54;;;;;;;1.93;1.40;;;;;27.50;99642.00;;;;2071279;28;20211;-59
2021/06/20 04:05:55;;;;;;;1.37;1.17;;;;;27.50;99636.00;;;;2070942;28;20373;-58
2021/06/20 04:06:55;;;;;;;2.80;1.53;;;;;27.40;99633.00;;;;2070901;28;20219;-63
2021/06/20 04:07:56;;;;;;;2.00;1.30;;;;;27.50;99653.00;;;;2071662;28;20276;-60
2021/06/20 04:08:56;;;;;;;2.90;1.83;;;;;27.50;99638.00;;;;2071220;28;20206;-58
2021/06/20 04:09:56;;;;;;;1.73;1.40;;;;;27.50;99641.00;;;;2071485;28;20623;-59
2021/06/20 04:10:57;;;;;;;1.90;1.60;;;;;27.50;99631.00;;;;2071506;28;20284;-58
2021/06/20 04:11:57;;;;;;;1.40;1.10;;;;;27.40;99642.00;;;;2070979;28;20291;-59
2021/06/20 04:12:59;;;;;;;2.40;1.80;;;;;27.50;99635.00;;;;2071518;28;20709;-59
2021/06/20 04:14:00;;;;;;;2.07;1.37;;;;;27.50;99637.00;;;;2071513;28;20293;-58
2021/06/20 04:15:01;;;;;;;2.30;1.53;;;;;27.40;99645.00;;;;2071595;28;20453;-59
2021/06/20 04:16:01;;;;;;;2.10;1.87;;;;;27.40;99647.00;;;;2071392;28;21062;-59
2021/06/20 04:17:01;;;;;;;1.77;1.57;;;;;27.40;99644.00;;;;2078259;28;20267;-58
2021/06/20 04:18:02;;;;;;;3.40;1.50;;;;;27.40;99653.00;;;;2079634;28;20264;-60
2021/06/20 04:19:02;;;;;;;1.73;1.43;;;;;27.50;99649.00;;;;2079509;28;20240;-59
2021/06/20 04:20:03;;;;;;;2.60;1.50;;;;;27.50;99644.00;;;;2079677;28;20215;-60
2021/06/20 04:21:04;;;;;;;1.33;1.10;;;;;27.50;99652.00;;;;2075327;28;20209;-59
2021/06/20 04:22:04;;;;;;;2.50;1.67;;;;;27.50;99649.00;;;;2073426;28;20310;-59
2021/06/20 04:23:04;;;;;;;1.60;1.50;;;;;27.40;99651.00;;;;2073075;28;20214;-58
2021/06/20 04:24:05;;;;;;;1.80;1.40;;;;;27.50;99657.00;;;;2072310;28;20261;-60
2021/06/20 04:25:06;;;;;;;1.67;1.57;;;;;27.40;99665.00;;;;2071530;28;20249;-60
2021/06/20 04:26:06;;;;;;;3.70;1.60;;;;;27.40;99667.00;;;;2071337;28;20237;-60
2021/06/20 04:27:07;;;;;;;1.43;1.33;;;;;27.50;99670.00;;;;2071309;28;20225;-58
2021/06/20 04:28:07;;;;;;;1.70;1.60;;;;;27.50;99666.00;;;;2071607;28;20616;-58
2021/06/20 04:29:08;;;;;;;1.63;1.53;;;;;27.40;99671.00;;;;2071224;28;20721;-59
2021/06/20 04:30:12;;;;;;;3.20;1.90;;;;;27.50;99663.00;;;;2071468;28;20261;-58
2021/06/20 04:31:12;;;;;;;2.07;1.50;;;;;27.50;99673.00;;;;2070644;28;20515;-59
2021/06/20 04:32:13;;;;;;;2.87;1.40;;;;;27.40;99673.00;;;;2072984;28;20453;-59
2021/06/20 04:33:13;;;;;;;1.80;1.50;;;;;27.40;99674.00;;;;2079637;28;20213;-59
2021/06/20 04:34:13;;;;;;;1.83;1.40;;;;;27.50;99673.00;;;;2079694;28;20216;-59
2021/06/20 04:35:14;;;;;;;2.50;1.60;;;;;27.40;99680.00;;;;2079649;28;20240;-60
2021/06/20 04:36:15;;;;;;;2.40;1.50;;;;;27.50;99678.00;;;;2079483;28;20323;-59
2021/06/20 04:37:15;;;;;;;2.23;1.50;;;;;27.40;99683.00;;;;2077416;28;20456;-59
2021/06/20 04:38:16;;;;;;;2.50;1.57;;;;;27.50;99682.00;;;;2071729;28;20640;-58
2021/06/20 04:39:16;;;;;;;2.17;1.97;;;;;27.50;99679.00;;;;2072880;28;20288;-59
2021/06/20 04:40:19;;;;;;;4.40;1.57;;;;;27.50;99673.00;;;;2073242;28;20237;-58
2021/06/20 04:41:21;;;;;;;2.43;1.60;;;;;27.40;99675.00;;;;2070797;28;20206;-59
2021/06/20 04:42:27;;;;;;;2.00;1.80;;;;;27.50;99678.00;;;;2071399;28;20523;-58
2021/06/20 04:44:43;;;;;;;2.90;1.67;;;;;27.50;99684.00;;;;2070994;28;20453;-59
2021/06/20 04:45:43;;;;;;;3.23;1.53;;;;;27.50;99688.00;;;;2074215;28;20548;-58
2021/06/20 04:46:43;;;;;;;1.80;1.70;;;;;27.50;99685.00;;;;2074284;28;20455;-59
2021/06/20 04:47:44;;;;;;;2.70;1.43;;;;;27.50;99691.00;;;;2073650;28;20237;-59
2021/06/20 04:48:44;;;;;;;2.23;1.20;;;;;27.50;99691.00;;;;2070632;28;20215;-58
2021/06/20 04:49:44;;;;;;;2.03;1.57;;;;;27.50;99696.00;;;;2070677;28;20214;-59
2021/06/20 04:50:45;;;;;;;2.17;1.30;;;;;27.50;99688.00;;;;2070642;28;20285;-59
2021/06/20 04:51:45;;;;;;;2.30;1.50;;;;;27.50;99691.00;;;;2070607;28;20226;-58
2021/06/20 04:52:46;;;;;;;1.93;1.60;;;;;27.50;99702.00;;;;2071492;28;20221;-59
2021/06/20 04:53:47;;;;;;;1.47;1.37;;;;;27.50;99693.00;;;;2071334;28;20790;-58
2021/06/20 04:54:50;;;;;;;1.80;1.70;;;;;27.50;99699.00;;;;2071216;28;20226;-58
2021/06/20 04:55:50;;;;;;;1.57;1.30;;;;;27.50;99695.00;;;;2074552;28;20463;-60
2021/06/20 04:56:51;;;;;;;1.40;1.30;;;;;27.50;99700.00;;;;2074057;28;20480;-59
2021/06/20 04:57:51;;;;;;;3.00;1.40;;;;;27.50;99694.00;;;;2071968;28;20229;-58
2021/06/20 04:58:52;;;;;;;1.77;1.60;;;;;27.50;99693.00;;;;2071143;28;20211;-59
2021/06/20 04:59:54;;;;;;;3.70;1.67;;;;;27.50;99693.00;;;;2071231;28;20222;-60
2021/06/20 05:00:54;;;;;;;2.47;1.57;;;;;27.50;99697.00;;;;2071182;28;20237;-59
2021/06/20 05:01:55;;;;;;;1.40;1.30;;;;;27.50;99694.00;;;;2070844;28;20457;-59
2021/06/20 05:02:56;;;;;;;1.57;1.47;;;;;27.50;99695.00;;;;2071090;28;20226;-59
2021/06/20 05:03:56;;;;;;;2.00;1.40;;;;;27.50;99693.00;;;;2072086;28;20214;-59
2021/06/20 05:04:57;;;;;;;2.50;1.60;;;;;27.50;99700.00;;;;2073226;28;20958;-58
2021/06/20 05:05:57;;;;;;;1.83;1.40;;;;;27.50;99705.00;;;;2071502;28;20710;-59